• Join FlightAware (Why Join?)
  • Login
  • US Flag 
02:21AM EST


 

Airport Tracker/Info


-or-


 

Live Flight TrackerFlight Track Log ✈ PVL910 ✈ 25-May-2013 ✈ CYHZ - CYYT

Flight Track Log - Related Links

Times and Time Zones

All times are in EDT time to prevent confusion due to time zone crossing. See the PVL910 flight status page for this flight to view local times or setup timezone preferences in your user account.

Time Position Orientation Groundspeed Altitude Reporting Facility
EDT Latitude Longitude Course Direction KTS MPH feet Rate Location/Type
08:47PM 44.8500 -63.5000 200° South 100 115 600  Level Moncton Center
08:48PM 44.8167 -63.5167 200° South 140 161 2,500 1,980 Climbing Moncton Center
08:49PM 44.8167 -63.4833 90° East 200 230 4,600 1,920 Climbing Moncton Center
08:50PM 44.8500 -63.4000 61° Northeast 230 265 6,400 1,620 Climbing Moncton Center
08:51PM 44.8833 -63.3333 55° Northeast 250 288 7,900 1,800 Climbing Moncton Center
08:52PM 44.9167 -63.2333 65° Northeast 250 288 10,100 1,800 Climbing Moncton Center
08:53PM 44.9500 -63.1500 61° Northeast 250 288 11,600 1,500 Climbing Moncton Center
08:54PM 44.9833 -63.0500 65° Northeast 260 299 13,200 1,200 Climbing Moncton Center
08:55PM 45.0167 -62.9500 65° Northeast 280 322 14,100 1,140 Climbing Moncton Center
08:56PM 45.0500 -62.8667 60° Northeast 290 334 15,500 1,320 Climbing Moncton Center
08:57PM 45.0833 -62.7667 65° Northeast 290 334 16,800 1,200 Climbing Moncton Center
08:58PM 45.1167 -62.6500 68° East 290 334 18,000 1,080 Climbing Moncton Center
08:59PM 45.1333 -62.5167 80° East 300 345 19,000 1,020 Climbing Moncton Center
09:00PM 45.1833 -62.4333 50° Northeast 310 357 20,100 1,080 Climbing Moncton Center
09:01PM 45.2000 -62.3000 80° East 300 345 21,200 960 Climbing Moncton Center
09:02PM 45.2333 -62.2167 60° Northeast 310 357 22,100 960 Climbing Moncton Center
09:03PM 45.2833 -62.0667 65° Northeast 320 368 23,200 1,020 Climbing Moncton Center
09:04PM 45.3167 -61.9667 65° Northeast 320 368 24,200 900 Climbing Moncton Center
09:05PM 45.3667 -61.8500 59° Northeast 320 368 25,100 840 Climbing Moncton Center
09:06PM 45.4000 -61.7333 68° East 320 368 25,900 840 Climbing Moncton Center
09:07PM 45.4167 -61.6333 77° East 320 368 26,800 900 Climbing Moncton Center
09:08PM 45.4500 -61.4833 72° East 320 368 27,700 840 Climbing Moncton Center
09:09PM 45.4833 -61.3667 68° East 320 368 28,500 720 Climbing Moncton Center
09:10PM 45.5167 -61.2667 65° Northeast 320 368 29,200 780 Climbing Moncton Center
09:11PM 45.5500 -61.1500 68° East 320 368 30,100 780 Climbing Moncton Center
09:12PM 45.5667 -61.0333 78° East 320 368 30,800 420 Climbing Moncton Center
09:13PM 45.6000 -60.9000 70° East 320 368 31,000 60 Climbing Moncton Center
09:14PM 45.6500 -60.7833 58° Northeast 350 403 31,000  Level Moncton Center
09:15PM 45.7000 -60.6333 64° Northeast 360 414 31,000  Level Moncton Center
09:16PM 45.7333 -60.5167 68° East 370 426 31,000  Level Moncton Center
09:17PM 45.7833 -60.3667 64° Northeast 380 437 31,000  Level Moncton Center
09:18PM 45.8000 -60.2833 74° East 380 437 31,000  Level Gander Center
09:19PM 45.8333 -60.1333 72° East 390 449 31,000  Level Gander Center
09:19PM 45.8667 -60.1000 35° Northeast 380 437 31,000  Level Moncton Center
09:20PM 45.8833 -59.9500 81° East 390 449 31,000  Level Moncton Center
09:21PM 45.9333 -59.8000 64° Northeast 390 449 31,000  Level Moncton Center
09:22PM 45.9833 -59.6500 64° Northeast 390 449 31,000  Level Moncton Center
09:23PM 46.0167 -59.5000 72° East 390 449 31,000  Level Moncton Center
09:24PM 46.0667 -59.3500 64° Northeast 390 449 31,000  Level Moncton Center
09:25PM 46.0833 -59.2000 81° East 390 449 31,000  Level Moncton Center
09:26PM 46.1167 -59.1167 60° Northeast 390 449 31,000  Level Gander Center
09:26PM 46.1333 -59.0500 70° East 390 449 31,000  Level Moncton Center
09:27PM 46.1833 -58.9167 62° Northeast 390 449 31,000  Level Moncton Center
09:28PM 46.2000 -58.8167 76° East 390 449 31,000  Level Gander Center
09:29PM 46.2500 -58.6833 61° Northeast 390 449 31,000  Level Gander Center
09:30PM 46.2833 -58.5333 72° East 390 449 31,000  Level Gander Center
09:30PM 46.2833 -58.4833 90° East 390 449 31,000  Level Moncton Center
09:31PM 46.3333 -58.3333 64° Northeast 390 449 31,000  Level Moncton Center
09:32PM 46.3667 -58.1833 72° East 390 449 31,000  Level Moncton Center
09:33PM 46.4000 -58.0833 64° Northeast 390 449 31,000  Level Gander Center
09:34PM 46.4333 -57.9333 72° East 400 460 31,000  Level Gander Center
09:35PM 46.4500 -57.7667 82° East 400 460 31,000  Level Gander Center
09:35PM 46.4667 -57.7333 54° Northeast 400 460 31,000  Level Moncton Center
09:36PM 46.5167 -57.5833 64° Northeast 410 472 31,000  Level Moncton Center
09:37PM 46.5667 -57.4333 64° Northeast 400 460 31,000  Level Moncton Center
09:38PM 46.5833 -57.3167 78° East 410 472 31,000  Level Gander Center
09:39PM 46.6333 -57.1667 64° Northeast 410 472 31,000  Level Gander Center
09:39PM 46.6333 -57.1333 90° East 410 472 31,000  Level Moncton Center
09:40PM 46.6667 -57.0000 70° East 400 460 31,000  Level Gander Center
09:40PM 46.6667 -56.9833 90° East 400 460 31,000  Level Moncton Center
09:41PM 46.6833 -56.8500 80° East 410 472 31,000  Level Gander Center
09:42PM 46.7167 -56.6833 74° East 410 472 31,000  Level Gander Center
09:43PM 46.7667 -56.5500 61° Northeast 410 472 31,000  Level Gander Center
09:43PM 46.7667 -56.5000 90° East 400 460 31,000  Level Moncton Center
09:44PM 46.8167 -56.3500 64° Northeast 410 472 31,000  Level Moncton Center
09:45PM 46.8333 -56.2333 78° East 410 472 31,000  Level Gander Center
09:46PM 46.8667 -56.0833 72° East 400 460 31,000  Level Gander Center
09:46PM 46.8833 -56.0167 70° East 400 460 31,000  Level Moncton Center
09:47PM 46.9333 -55.8500 66° East 410 472 31,000  Level Moncton Center
09:48PM 46.9333 -55.7500 90° East 410 472 31,000  Level Gander Center
09:49PM 46.9833 -55.6000 64° Northeast 410 472 31,000  Level Gander Center
09:50PM 47.0333 -55.4500 64° Northeast 410 472 31,000  Level Gander Center
09:51PM 47.0667 -55.3000 72° East 410 472 31,000  Level Gander Center
09:52PM 47.1000 -55.1167 75° East 410 472 31,000 -240 Level Gander Center
09:53PM 47.1333 -54.9667 72° East 410 472 30,600 -1,320 Descending Gander Center
09:54PM 47.1667 -54.8000 74° East 420 483 28,400 -2,400 Descending Gander Center
09:55PM 47.2000 -54.6333 74° East 430 495 25,800 -2,460 Descending Gander Center
09:56PM 47.2167 -54.4833 81° East 420 483 23,500 -2,400 Descending Gander Center
09:57PM 47.2667 -54.3167 66° East 400 460 21,000 -2,400 Descending Gander Center
09:58PM 47.3000 -54.1833 70° East 390 449 18,800 -2,100 Descending Gander Center
09:59PM 47.3500 -54.0333 64° Northeast 380 437 16,800 -2,040 Descending Gander Center
10:00PM 47.3667 -53.8833 81° East 380 437 14,800 -2,280 Descending Gander Center
10:00PM 47.3833 -53.8167 70° East 370 426 13,800 -1,920 Descending Moncton Center
10:01PM 47.4000 -53.7167 76° East 360 414 12,900 -1,500 Descending Gander Center
10:02PM 47.4333 -53.6000 67° East 350 403 11,300 -1,740 Descending Gander Center
10:03PM 47.4500 -53.4500 81° East 340 391 9,500 -1,740 Descending Gander Center
10:04PM 47.4667 -53.3167 79° East 330 380 7,900 -1,680 Descending Gander Center
10:05PM 47.4667 -53.2167 90° East 310 357 6,200 -1,800 Descending Gander Center
10:06PM 47.5000 -53.0833 70° East 300 345 4,400 -1,380 Descending Gander Center
10:07PM 47.5000 -52.9667 90° East 290 334 3,500 -840 Descending Gander Center
10:08PM 47.5167 -52.8667 76° East 260 299 2,800 -600 Descending Gander Center
10:09PM 47.5333 -52.7667 76° East 250 288 2,400 -240 Descending Gander Center
10:10PM 47.5500 -52.6833 73° East 220 253 2,400  Level Gander Center
10:11PM 47.5667 -52.6000 73° East 180 207 2,400  Level Gander Center
10:12PM 47.5667 -52.5500 90° East 150 173 2,400 -180 Level Gander Center
10:13PM 47.5667 -52.4833 90° East 160 184 2,100 -180 Descending Gander Center
10:14PM 47.6167 -52.5000 347° North 160 184 2,100  Level Gander Center
10:15PM 47.6167 -52.5500 270° West 140 161 2,100 -300 Level Gander Center
10:16PM 47.6167 -52.6000 270° West 120 138 1,500 -600 Descending Gander Center
10:17PM 47.6167 -52.6500 270° West 100 115 1,000 -600 Descending Gander Center
10:18PM 47.6167 -52.7000 270° West 110 127 400 -600 Descending Gander Center